Flight Track Log - Related Links

Times and Time Zones

All times are in EDT time to prevent confusion due to time zone crossing. See the DAL3974 flight status page for this flight to view local times or setup timezone preferences in your user account.

Time Position Orientation Groundspeed Altitude Reporting Facility
EDT Latitude Longitude Course Direction KTS MPH feet Rate Location/Type
Sun 07:53:04 PM 42.2036 -83.3556 180° South 155 178 1,300  Level Cleveland Center
Sun 07:54:11 PM 42.1536 -83.3561 180° South 181 208 3,900 2,225 Climbing Cleveland Center
Sun 07:55:35 PM 42.0819 -83.3025 151° Southeast 240 276 6,900 2,208 Climbing Cleveland Center
Sun 07:56:35 PM 42.0758 -83.2072 95° East 240 276 9,200 1,850 Climbing Cleveland Center
Sun 07:57:35 PM 42.1181 -83.0914 64° Northeast 271 312 10,600 1,700 Climbing Cleveland Center
Sun 07:58:35 PM 42.1689 -82.9617 62° Northeast 322 371 12,600 2,000 Climbing Cleveland Center
Sun 07:59:35 PM 42.2194 -82.8289 63° Northeast 364 419 14,600 2,000 Climbing Cleveland Center
Sun 08:00:35 PM 42.2739 -82.6961 61° Northeast 390 449 16,600 1,950 Climbing Cleveland Center
Sun 08:01:35 PM 42.3264 -82.5603 62° Northeast 400 460 18,500 1,700 Climbing Cleveland Center
Sun 08:02:35 PM 42.3664 -82.4125 70° East 405 466 20,000 1,350 Climbing Cleveland Center
Sun 08:03:35 PM 42.3606 -82.2578 93° East 400 460 21,200 1,200 Climbing Cleveland Center
Sun 08:04:35 PM 42.3525 -82.0778 93° East 413 475 22,400 1,250 Climbing Cleveland Center
Sun 08:05:35 PM 42.3461 -81.9119 93° East 431 496 23,700 1,200 Climbing Cleveland Center
Sun 08:06:35 PM 42.3375 -81.7461 94° East 440 506 24,800 1,100 Climbing Cleveland Center
Sun 08:07:35 PM 42.3286 -81.5803 94° East 447 514 25,900 1,100 Climbing Cleveland Center
Sun 08:08:35 PM 42.3217 -81.4144 93° East 442 509 27,000 550 Climbing Cleveland Center
Sun 08:09:35 PM 42.3125 -81.2431 94° East 442 509 27,000  Level Cleveland Center
Sun 08:10:35 PM 42.3028 -81.0689 94° East 455 524 27,000  Level Cleveland Center
Sun 08:11:35 PM 42.2992 -80.9117 92° East 465 535 27,000  Level Cleveland Center
Sun 08:12:35 PM 42.2872 -80.7347 95° East 470 541 27,000  Level Cleveland Center
Sun 08:13:35 PM 42.2789 -80.5550 94° East 475 547 27,000  Level Cleveland Center
Sun 08:14:35 PM 42.2683 -80.3783 95° East 475 547 27,000  Level Cleveland Center
Sun 08:15:35 PM 42.2575 -80.2017 95° East 475 547 27,000  Level Cleveland Center
Sun 08:16:35 PM 42.2461 -80.0081 94° East 468 539 27,000  Level Cleveland Center
Sun 08:17:35 PM 42.2350 -79.8514 95° East 468 539 27,000  Level Cleveland Center
Sun 08:18:35 PM 42.2253 -79.6775 94° East 468 539 27,000  Level Cleveland Center
Sun 08:19:35 PM 42.2133 -79.5011 95° East 463 533 27,000  Level Cleveland Center
Sun 08:20:35 PM 42.2011 -79.3275 95° East 463 533 27,000  Level Cleveland Center
Sun 08:21:35 PM 42.1908 -79.1456 94° East 463 533 27,000  Level Cleveland Center
Sun 08:22:35 PM 42.2072 -78.9742 83° East 463 533 27,000  Level Cleveland Center
Sun 08:23:35 PM 42.2356 -78.7772 79° East 468 539 27,000  Level Cleveland Center
Sun 08:24:35 PM 42.2556 -78.6025 81° East 468 539 27,000  Level Cleveland Center
Sun 08:25:35 PM 42.2775 -78.4278 80° East 468 539 27,000  Level Cleveland Center
Sun 08:26:35 PM 42.2989 -78.2475 81° East 468 539 27,000  Level Cleveland Center
Sun 08:27:35 PM 42.3203 -78.0697 81° East 468 539 27,000  Level Cleveland Center
Sun 08:28:35 PM 42.3414 -77.8919 81° East 468 539 27,000  Level Cleveland Center
Sun 08:29:35 PM 42.3603 -77.7308 81° East 476 548 27,000  Level Cleveland Center
Sun 08:30:35 PM 42.3808 -77.5500 81° East 476 548 27,000  Level Cleveland Center
Sun 08:32:13 PM 42.4147 -77.2583 81° East 490 564 27,000  Level Boston Center
Sun 08:33:14 PM 42.4350 -77.0769 81° East 490 564 27,000  Level Boston Center
Sun 08:34:14 PM 42.4547 -76.8983 81° East 485 558 27,000  Level Boston Center
Sun 08:35:14 PM 42.4742 -76.7167 82° East 480 552 27,000  Level Boston Center
Sun 08:36:14 PM 42.4933 -76.5347 82° East 480 552 27,000  Level Boston Center
Sun 08:37:14 PM 42.5122 -76.3500 82° East 480 552 27,000  Level Boston Center
Sun 08:38:15 PM 42.5308 -76.1681 82° East 480 552 27,000  Level Boston Center
Sun 08:39:16 PM 42.5514 -75.9858 81° East 480 552 27,000  Level Boston Center
Sun 08:40:13 PM 42.5675 -75.8008 83° East 480 552 27,000  Level Boston Center
Sun 08:41:15 PM 42.5853 -75.6128 83° East 486 559 27,000  Level Boston Center
Sun 08:42:13 PM 42.6028 -75.4275 83° East 486 559 27,000  Level Boston Center
Sun 08:43:14 PM 42.6222 -75.2450 82° East 491 565 27,000  Level Boston Center
Sun 08:44:15 PM 42.6394 -75.0397 83° East 497 572 27,000  Level Boston Center
Sun 08:45:15 PM 42.6561 -74.8539 83° East 497 572 27,000  Level Boston Center
Sun 08:46:13 PM 42.6725 -74.6681 83° East 497 572 27,000 -50 Level Boston Center
Sun 08:47:15 PM 42.6906 -74.4767 83° East 497 572 26,900 -800 Descending Boston Center
Sun 08:48:13 PM 42.7064 -74.2908 83° East 502 578 25,400 -1,513 Descending Boston Center
Sun 08:49:14 PM 42.7217 -74.1019 84° East 502 578 23,900 -1,475 Descending Boston Center
Sun 08:50:15 PM 42.7389 -73.9186 83° East 496 571 22,400 -1,513 Descending Boston Center
Sun 08:51:13 PM 42.7514 -73.7378 85° East 490 564 20,900 -1,475 Descending Boston Center
Sun 08:52:13 PM 42.7597 -73.5600 86° East 479 551 19,500 -942 Descending Boston Center
Sun 08:53:14 PM 42.7611 -73.3847 89° East 479 551 19,000 -246 Descending Boston Center
Sun 08:54:15 PM 42.7667 -73.2264 87° East 459 528 19,000  Level Boston Center
Sun 08:55:13 PM 42.7719 -73.0397 88° East 454 522 19,000  Level Boston Center
Sun 08:56:14 PM 42.7811 -72.8700 86° East 454 522 19,000  Level Boston Center
Sun 08:57:14 PM 42.7836 -72.6975 89° East 454 522 19,000 -1,190 Level Boston Center
Sun 08:58:15 PM 42.7881 -72.5333 88° East 447 514 16,600 -2,331 Descending Boston Center
Sun 08:59:15 PM 42.7942 -72.3778 87° East 432 497 14,300 -2,085 Descending Boston Center
Sun 09:00:13 PM 42.8003 -72.2561 86° East 387 445 12,500 -1,983 Descending Boston Center
Sun 09:01:13 PM 42.8208 -72.1231 78° East 337 388 10,400 -1,800 Descending Boston Center
Sun 09:02:13 PM 42.8103 -72.0183 98° East 303 349 8,900 -1,600 Descending Boston Center
Sun 09:03:13 PM 42.7992 -71.9025 97° East 290 334 7,200 -1,672 Descending Boston Center
Sun 09:04:15 PM 42.7906 -71.8119 97° East 270 311 5,500 -1,091 Descending Boston Center
Sun 09:05:14 PM 42.7772 -71.7075 100° East 259 298 5,000 -655 Descending Boston Center
Sun 09:06:14 PM 42.7664 -71.6256 100° East 254 292 4,200 -992 Descending Boston Center
Sun 09:07:15 PM 42.7511 -71.5325 103° East 234 269 3,000 -595 Descending Boston Center
Sun 09:08:15 PM 42.7589 -71.4644 81° East 210 242 3,000 -102 Level Boston Center
Sun 09:09:13 PM 42.7811 -71.3822 70° East 204 235 2,800 -202 Descending Boston Center
Sun 09:10:14 PM 42.8206 -71.3700 13° North 162 186 2,600 -545 Descending Boston Center
Sun 09:11:14 PM 42.8561 -71.3922 335° Northwest 129 148 1,700 -744 Descending Boston Center
Sun 09:12:15 PM 42.8833 -71.4086 336° Northwest 122 140 1,100 -661 Descending Boston Center
Sun 09:13:12 PM 42.9169 -71.4281 337° Northwest 117 135 400 -737 Descending Boston Center

Login

Don't have an account? Register now (free) for customized features, flight alerts, and more!